Here is the Quick Look data you requested

The Data originates at the National Weather Service, and is made available here by the UAlbany Department of Atmospheric and Environmental Sciences

Surface Observations

KBID 130156Z AUTO 01011KT 10SM CLR 00/M09 A3026 RMK AO2 SLP251 T00001094 FZRANO=
KOQU 130150Z 01008KT 15SM BKN250 M01/M11 A3027=
KPVD 130151Z 35006KT 10SM BKN250 M03/M11 A3027 RMK AO2 SLP252 T10281106=
KSFZ 130156Z AUTO 02006KT 10SM CLR M05/M11 A3026 RMK AO2 SLP196 T10501106
 FZRANO=
KUUU 130153Z AUTO 01010KT 10SM CLR M02/M12 A3026 RMK AO2 SLP247 T10171117=
KWST 130153Z AUTO 36004KT 10SM CLR 00/M09 A3026 RMK AO2 SLP248 T00001089=